createdAt,value
2017-08-17T00:00:15.580Z,16.40
2017-08-17T00:02:43.137Z,16.30
2017-08-17T00:05:10.662Z,16.30
2017-08-17T00:07:38.198Z,16.30
2017-08-17T00:10:05.747Z,16.20
2017-08-17T00:12:33.279Z,16.20
2017-08-17T00:15:00.843Z,16.20
2017-08-17T00:17:28.382Z,16.20
2017-08-17T00:19:55.946Z,16.10
2017-08-17T00:22:23.472Z,16.00
2017-08-17T00:24:51.004Z,16.10
2017-08-17T00:27:18.534Z,16.10
2017-08-17T00:29:46.064Z,16.00
2017-08-17T00:32:13.604Z,16.00
2017-08-17T00:34:41.139Z,15.90
2017-08-17T00:37:08.678Z,15.90
2017-08-17T00:39:36.208Z,15.90
2017-08-17T00:42:03.747Z,15.90
2017-08-17T00:44:31.282Z,15.80
2017-08-17T00:46:58.827Z,15.80
2017-08-17T00:49:36.051Z,15.80
2017-08-17T00:52:03.623Z,15.80
2017-08-17T00:54:31.168Z,15.80
2017-08-17T00:56:58.732Z,15.80
2017-08-17T00:59:26.262Z,15.70
2017-08-17T01:01:53.823Z,15.70
2017-08-17T01:04:21.362Z,15.70
2017-08-17T01:06:48.905Z,15.70
2017-08-17T01:09:16.447Z,15.60
2017-08-17T01:11:49.647Z,15.70
2017-08-17T01:14:17.187Z,15.70
2017-08-17T01:16:44.714Z,15.60
2017-08-17T01:19:12.242Z,15.60
2017-08-17T01:21:39.777Z,15.60
2017-08-17T01:24:07.335Z,15.70
2017-08-17T01:26:34.867Z,15.70
2017-08-17T01:29:02.427Z,15.70
2017-08-17T01:31:29.959Z,15.80
2017-08-17T01:33:57.515Z,15.80
2017-08-17T01:36:25.046Z,15.80
2017-08-17T01:38:52.610Z,15.80
2017-08-17T01:41:20.151Z,15.80
2017-08-17T01:43:47.683Z,15.80
2017-08-17T01:46:15.219Z,15.70
2017-08-17T01:48:42.755Z,15.70
2017-08-17T01:51:10.645Z,15.70
2017-08-17T01:53:38.179Z,15.70
2017-08-17T01:56:05.736Z,15.70
2017-08-17T01:58:33.267Z,15.70
2017-08-17T02:01:00.820Z,15.70
2017-08-17T02:03:28.347Z,15.80
2017-08-17T02:05:55.911Z,15.90
2017-08-17T02:08:23.451Z,15.90
2017-08-17T02:10:50.984Z,15.90
2017-08-17T02:13:18.523Z,15.90
2017-08-17T02:15:46.054Z,16.00
2017-08-17T02:18:13.622Z,16.00
2017-08-17T02:20:41.153Z,16.00
2017-08-17T02:23:08.720Z,16.00
2017-08-17T02:25:36.259Z,16.00
2017-08-17T02:28:03.822Z,16.00
2017-08-17T02:30:31.360Z,16.00
2017-08-17T02:32:58.913Z,16.00
2017-08-17T02:35:26.446Z,16.00
2017-08-17T02:37:54.018Z,16.00
2017-08-17T02:40:21.554Z,16.00
2017-08-17T02:42:49.097Z,15.90
2017-08-17T02:45:16.626Z,15.90
2017-08-17T02:47:44.166Z,15.90
2017-08-17T02:50:11.736Z,15.90
2017-08-17T02:52:39.275Z,15.80
2017-08-17T02:55:06.827Z,15.80
2017-08-17T02:57:34.359Z,15.90
2017-08-17T03:00:01.920Z,15.90
2017-08-17T03:02:29.458Z,15.80
2017-08-17T03:04:57.014Z,15.90
2017-08-17T03:07:24.550Z,15.90
2017-08-17T03:09:52.118Z,15.90
2017-08-17T03:12:19.650Z,16.00
2017-08-17T03:14:47.191Z,16.00
2017-08-17T03:17:14.722Z,16.00
2017-08-17T03:19:42.254Z,16.00
2017-08-17T03:22:09.815Z,16.10
2017-08-17T03:24:37.347Z,16.10
2017-08-17T03:27:04.911Z,16.10
2017-08-17T03:29:32.438Z,16.10
2017-08-17T03:32:00.004Z,16.20
2017-08-17T03:34:27.533Z,16.10
2017-08-17T03:36:55.107Z,16.10
2017-08-17T03:39:22.644Z,16.10
2017-08-17T03:41:50.179Z,16.10
2017-08-17T03:44:17.737Z,16.20
2017-08-17T03:46:45.266Z,16.20
2017-08-17T03:49:12.795Z,16.20
2017-08-17T03:51:40.326Z,16.10
2017-08-17T03:54:07.859Z,16.10
2017-08-17T03:56:35.394Z,16.10
2017-08-17T03:59:02.939Z,16.10
2017-08-17T04:01:30.471Z,16.10
2017-08-17T04:03:58.003Z,16.10
2017-08-17T04:06:25.551Z,16.20
2017-08-17T04:08:53.082Z,16.20
2017-08-17T04:11:20.619Z,16.20
2017-08-17T04:13:48.199Z,16.30
2017-08-17T04:16:15.741Z,16.30
2017-08-17T04:18:43.522Z,16.30
2017-08-17T04:21:11.329Z,16.20
2017-08-17T04:23:39.262Z,16.20
2017-08-17T04:26:22.223Z,16.30
2017-08-17T04:28:51.008Z,16.30
2017-08-17T04:31:18.854Z,16.30
2017-08-17T04:33:46.720Z,16.30
2017-08-17T04:36:14.614Z,16.30
2017-08-17T04:38:42.644Z,16.40
2017-08-17T04:41:11.362Z,16.40
2017-08-17T04:43:40.573Z,16.50
2017-08-17T04:46:08.645Z,16.60
2017-08-17T04:51:29.208Z,16.70
2017-08-17T04:53:56.747Z,16.80
2017-08-17T04:56:41.811Z,16.90
2017-08-17T04:59:09.351Z,17.00
2017-08-17T05:01:36.927Z,17.10
2017-08-17T05:04:04.467Z,17.10
2017-08-17T05:06:31.999Z,17.10
2017-08-17T05:08:59.530Z,17.20
2017-08-17T05:11:27.075Z,17.30
2017-08-17T05:13:54.620Z,17.30
2017-08-17T05:16:22.154Z,17.30
2017-08-17T05:18:49.919Z,17.40
2017-08-17T05:21:17.463Z,17.40
2017-08-17T05:23:45.028Z,17.50
2017-08-17T05:26:12.562Z,17.50
2017-08-17T05:28:40.122Z,17.40
2017-08-17T05:31:07.658Z,17.40
2017-08-17T05:33:35.224Z,17.40
2017-08-17T05:36:02.763Z,17.40
2017-08-17T05:38:30.324Z,17.40
2017-08-17T05:40:57.868Z,17.40
2017-08-17T05:43:25.460Z,17.50
2017-08-17T05:45:52.998Z,17.50
2017-08-17T05:48:20.531Z,17.60
2017-08-17T05:50:48.063Z,17.70
2017-08-17T05:53:15.598Z,17.80
2017-08-17T05:58:36.330Z,17.90
2017-08-17T06:01:03.894Z,18.00
2017-08-17T06:03:31.430Z,18.00
2017-08-17T06:05:58.994Z,18.20
2017-08-17T06:08:26.531Z,18.10
2017-08-17T06:10:54.087Z,18.10
2017-08-17T06:13:21.626Z,18.00
2017-08-17T06:15:49.183Z,18.00
2017-08-17T06:18:16.714Z,18.00
2017-08-17T06:20:44.271Z,18.10
2017-08-17T06:23:11.811Z,18.10
2017-08-17T06:25:39.369Z,18.20
2017-08-17T06:28:06.907Z,18.30
2017-08-17T06:30:34.473Z,18.50
2017-08-17T06:33:02.003Z,18.70
2017-08-17T06:35:29.563Z,18.90
2017-08-17T06:37:57.096Z,19.00
2017-08-17T06:40:24.632Z,19.00
2017-08-17T06:45:45.258Z,19.20
2017-08-17T06:48:12.818Z,19.30
2017-08-17T06:50:40.355Z,19.50
2017-08-17T06:53:07.891Z,20.20
2017-08-17T06:55:35.427Z,20.60
2017-08-17T06:58:02.959Z,21.00
2017-08-17T07:00:30.498Z,21.60
2017-08-17T07:05:50.934Z,22.60
2017-08-17T07:08:18.467Z,22.60
2017-08-17T07:10:45.998Z,22.20
2017-08-17T07:16:05.930Z,22.50
2017-08-17T07:18:33.470Z,23.00
2017-08-17T07:21:01.003Z,23.20
2017-08-17T07:23:28.563Z,22.60
2017-08-17T07:25:56.102Z,22.60
2017-08-17T07:28:23.678Z,23.00
2017-08-17T07:30:51.219Z,22.50
2017-08-17T07:33:18.775Z,23.00
2017-08-17T07:35:46.311Z,22.90
2017-08-17T07:38:13.852Z,23.00
2017-08-17T07:40:41.395Z,23.40
2017-08-17T07:43:09.930Z,23.60
2017-08-17T07:45:37.506Z,23.60
2017-08-17T07:48:05.121Z,23.80
2017-08-17T07:50:32.703Z,23.90
2017-08-17T07:53:00.268Z,24.00
2017-08-17T07:55:27.855Z,24.60
2017-08-17T07:57:55.429Z,25.10
2017-08-17T08:00:22.993Z,24.80
2017-08-17T08:02:50.561Z,24.80
2017-08-17T08:05:18.188Z,24.80
2017-08-17T08:07:45.978Z,24.60
2017-08-17T08:10:13.568Z,24.30
2017-08-17T08:12:41.188Z,24.30
2017-08-17T08:15:08.743Z,24.70
2017-08-17T08:17:36.310Z,25.00
2017-08-17T08:20:03.876Z,24.60
2017-08-17T08:22:31.484Z,24.90
2017-08-17T08:24:59.046Z,24.70
2017-08-17T08:27:26.643Z,25.20
2017-08-17T08:29:54.209Z,26.10
2017-08-17T08:32:21.770Z,25.40
2017-08-17T08:34:49.316Z,25.70
2017-08-17T08:37:16.895Z,25.50
2017-08-17T08:39:44.476Z,25.50
2017-08-17T08:42:12.059Z,25.00
2017-08-17T08:44:39.617Z,25.30
2017-08-17T08:47:07.170Z,25.40
2017-08-17T08:49:34.970Z,25.70
2017-08-17T08:52:02.529Z,25.60
2017-08-17T08:54:31.115Z,25.20
2017-08-17T08:56:58.939Z,25.00
2017-08-17T08:59:26.553Z,24.50
2017-08-17T09:01:54.110Z,24.80
2017-08-17T09:04:21.761Z,24.70
2017-08-17T09:06:49.341Z,24.60
2017-08-17T09:09:16.915Z,24.30
2017-08-17T09:11:44.468Z,24.00
2017-08-17T09:14:13.043Z,23.70
2017-08-17T09:19:14.485Z,24.40
2017-08-17T09:21:42.049Z,24.90
2017-08-17T09:24:09.614Z,24.70
2017-08-17T09:26:37.157Z,25.20
2017-08-17T09:29:04.724Z,25.40
2017-08-17T09:31:32.333Z,25.80
2017-08-17T09:33:59.993Z,25.80
2017-08-17T09:36:27.639Z,26.40
2017-08-17T09:38:55.307Z,26.30
2017-08-17T09:41:23.063Z,25.60
2017-08-17T09:43:50.666Z,25.30
2017-08-17T09:46:18.388Z,24.90
2017-08-17T09:48:46.502Z,25.20
2017-08-17T09:51:14.200Z,24.80
2017-08-17T09:53:42.853Z,24.70
2017-08-17T09:56:10.444Z,24.60
2017-08-17T09:58:38.025Z,24.60
2017-08-17T10:01:05.628Z,25.10
2017-08-17T10:03:33.225Z,25.20
2017-08-17T10:06:00.834Z,25.20
2017-08-17T10:08:28.408Z,25.60
2017-08-17T10:10:56.320Z,25.40
2017-08-17T10:13:23.869Z,25.00
2017-08-17T10:15:51.521Z,25.00
2017-08-17T10:18:19.195Z,25.40
2017-08-17T10:20:46.747Z,25.20
2017-08-17T10:23:14.325Z,25.40
2017-08-17T10:25:41.891Z,25.60
2017-08-17T10:28:09.464Z,25.70
2017-08-17T10:30:37.018Z,25.90
2017-08-17T10:33:04.686Z,25.70
2017-08-17T10:35:32.326Z,25.70
2017-08-17T10:37:59.952Z,25.30
2017-08-17T10:40:27.555Z,25.20
2017-08-17T10:42:55.364Z,24.90
2017-08-17T10:45:23.053Z,25.10
2017-08-17T10:47:50.652Z,25.00
2017-08-17T10:50:18.643Z,24.70
2017-08-17T10:52:46.241Z,24.90
2017-08-17T10:55:14.087Z,24.50
2017-08-17T10:57:41.812Z,24.60
2017-08-17T11:00:09.490Z,24.70
2017-08-17T11:02:37.107Z,24.60
2017-08-17T11:05:04.796Z,24.80
2017-08-17T11:07:32.555Z,25.00
2017-08-17T11:10:00.242Z,24.90
2017-08-17T11:12:28.036Z,25.00
2017-08-17T11:14:55.707Z,24.80
2017-08-17T11:17:23.375Z,25.00
2017-08-17T11:19:51.018Z,25.20
2017-08-17T11:22:19.176Z,25.20
2017-08-17T11:24:46.763Z,25.20
2017-08-17T11:27:14.345Z,25.30
2017-08-17T11:29:41.924Z,25.60
2017-08-17T11:32:09.480Z,25.70
2017-08-17T11:34:37.039Z,25.90
2017-08-17T11:37:04.601Z,25.80
2017-08-17T11:39:32.453Z,26.00
2017-08-17T11:42:00.019Z,26.00
2017-08-17T11:44:27.594Z,26.30
2017-08-17T11:46:55.393Z,25.80
2017-08-17T11:49:22.941Z,26.00
2017-08-17T11:51:50.504Z,25.80
2017-08-17T11:54:18.107Z,25.70
2017-08-17T11:56:45.674Z,25.90
2017-08-17T11:59:13.216Z,26.20
2017-08-17T12:01:40.785Z,26.60
2017-08-17T12:04:08.325Z,26.10
2017-08-17T12:06:35.926Z,25.80
2017-08-17T12:09:03.499Z,25.60
2017-08-17T12:11:31.063Z,25.30
2017-08-17T12:13:58.601Z,25.20
2017-08-17T12:16:26.161Z,25.30
2017-08-17T12:18:53.783Z,25.20
2017-08-17T12:21:21.325Z,25.30
2017-08-17T12:23:48.888Z,25.30
2017-08-17T12:26:16.435Z,25.20
2017-08-17T12:28:43.995Z,25.10
2017-08-17T12:31:11.545Z,25.00
2017-08-17T12:33:39.124Z,25.00
2017-08-17T12:36:06.694Z,25.10
2017-08-17T12:38:34.239Z,24.90
2017-08-17T12:41:01.791Z,24.90
2017-08-17T12:43:29.356Z,24.80
2017-08-17T12:45:56.908Z,24.90
2017-08-17T12:48:24.442Z,24.90
2017-08-17T12:50:52.001Z,25.00
2017-08-17T12:53:19.909Z,25.00
2017-08-17T12:55:47.495Z,24.90
2017-08-17T12:58:15.034Z,24.90
2017-08-17T13:00:42.587Z,25.00
2017-08-17T13:03:10.149Z,25.20
2017-08-17T13:05:37.709Z,25.40
2017-08-17T13:08:05.307Z,25.60
2017-08-17T13:10:32.886Z,25.80
2017-08-17T13:13:00.434Z,25.80
2017-08-17T13:15:27.979Z,25.80
2017-08-17T13:17:55.530Z,25.40
2017-08-17T13:20:23.175Z,25.30
2017-08-17T13:22:50.709Z,25.30
2017-08-17T13:25:18.465Z,25.10
2017-08-17T13:27:46.011Z,25.20
2017-08-17T13:30:13.545Z,25.20
2017-08-17T13:32:41.075Z,24.80
2017-08-17T13:35:08.606Z,24.60
2017-08-17T13:37:36.177Z,24.50
2017-08-17T13:40:03.722Z,24.50
2017-08-17T13:42:31.323Z,24.40
2017-08-17T13:44:58.853Z,24.20
2017-08-17T13:47:26.428Z,24.20
2017-08-17T13:49:54.973Z,24.10
2017-08-17T13:52:23.167Z,24.00
2017-08-17T13:54:50.707Z,23.90
2017-08-17T13:57:18.269Z,24.00
2017-08-17T13:59:45.826Z,24.10
2017-08-17T14:02:13.427Z,24.20
2017-08-17T14:04:41.264Z,24.20
2017-08-17T14:07:08.863Z,24.40
2017-08-17T14:09:36.398Z,24.30
2017-08-17T14:12:04.138Z,24.20
2017-08-17T14:14:31.827Z,24.10
2017-08-17T14:16:59.368Z,24.00
2017-08-17T14:19:26.922Z,24.00
2017-08-17T14:21:54.448Z,24.00
2017-08-17T14:24:22.200Z,24.00
2017-08-17T14:26:49.774Z,24.00
2017-08-17T14:29:17.323Z,24.10
2017-08-17T14:31:45.016Z,24.10
2017-08-17T14:34:12.947Z,24.00
2017-08-17T14:36:40.491Z,24.10
2017-08-17T14:39:08.010Z,24.10
2017-08-17T14:41:35.544Z,24.10
2017-08-17T14:44:03.103Z,24.10
2017-08-17T14:46:30.872Z,24.00
2017-08-17T14:48:58.412Z,23.90
2017-08-17T14:51:25.947Z,23.80
2017-08-17T14:53:53.536Z,23.70
2017-08-17T14:56:21.074Z,23.70
2017-08-17T14:58:48.618Z,23.60
2017-08-17T15:01:16.150Z,23.60
2017-08-17T15:03:43.694Z,23.60
2017-08-17T15:06:11.287Z,23.50
2017-08-17T15:09:20.415Z,23.30
2017-08-17T15:11:47.955Z,23.20
2017-08-17T15:14:15.536Z,23.20
2017-08-17T15:16:43.067Z,23.10
2017-08-17T15:19:10.606Z,23.10
2017-08-17T15:21:38.903Z,22.80
2017-08-17T15:24:06.439Z,22.80
2017-08-17T15:26:34.742Z,22.80
2017-08-17T15:29:02.270Z,22.80
2017-08-17T15:31:30.596Z,22.60
2017-08-17T15:33:58.135Z,22.60
2017-08-17T15:36:25.695Z,22.50
2017-08-17T15:38:53.228Z,22.40
2017-08-17T15:41:20.851Z,22.40
2017-08-17T15:43:48.380Z,22.40
2017-08-17T15:46:15.926Z,22.30
2017-08-17T15:48:43.467Z,22.30
2017-08-17T15:51:11.791Z,22.10
2017-08-17T15:53:39.318Z,22.10
2017-08-17T15:56:06.852Z,22.10
2017-08-17T15:58:34.386Z,22.10
2017-08-17T16:01:02.009Z,22.10
2017-08-17T16:03:29.576Z,22.00
2017-08-17T16:05:57.103Z,22.00
2017-08-17T16:08:25.339Z,21.90
2017-08-17T16:10:52.866Z,21.90
2017-08-17T16:13:20.415Z,21.80
2017-08-17T16:15:48.010Z,21.80
2017-08-17T16:18:17.926Z,21.70
2017-08-17T16:20:46.231Z,21.50
2017-08-17T16:23:13.826Z,21.50
2017-08-17T16:25:41.391Z,21.30
2017-08-17T16:28:08.923Z,21.10
2017-08-17T16:30:36.506Z,21.00
2017-08-17T16:33:04.035Z,20.90
2017-08-17T16:35:31.578Z,20.70
2017-08-17T16:37:59.138Z,20.60
2017-08-17T16:40:26.682Z,20.50
2017-08-17T16:42:54.998Z,20.40
2017-08-17T16:45:22.702Z,20.30
2017-08-17T16:47:50.240Z,20.50
2017-08-17T16:50:17.779Z,20.50
2017-08-17T16:52:45.319Z,20.30
2017-08-17T16:55:12.850Z,20.40
2017-08-17T16:57:40.407Z,20.50
2017-08-17T17:00:07.943Z,20.60
2017-08-17T17:02:35.503Z,20.50
2017-08-17T17:05:03.042Z,20.60
2017-08-17T17:07:30.600Z,20.60
2017-08-17T17:09:58.134Z,20.40
2017-08-17T17:12:26.471Z,20.40
2017-08-17T17:14:54.019Z,20.40
2017-08-17T17:17:21.551Z,20.50
2017-08-17T17:19:49.083Z,20.50
2017-08-17T17:22:17.399Z,20.50
2017-08-17T17:24:44.934Z,20.50
2017-08-17T17:27:12.467Z,20.40
2017-08-17T17:29:39.999Z,20.30
2017-08-17T17:32:07.541Z,20.40
2017-08-17T17:34:35.071Z,20.30
2017-08-17T17:37:02.631Z,20.30
2017-08-17T17:39:30.255Z,20.30
2017-08-17T17:41:58.632Z,20.30
2017-08-17T17:44:26.979Z,20.20
2017-08-17T17:46:54.538Z,20.20
2017-08-17T17:49:22.095Z,20.20
2017-08-17T17:51:49.655Z,20.20
2017-08-17T17:54:17.219Z,20.30
2017-08-17T17:56:44.777Z,20.20
2017-08-17T17:59:12.316Z,20.20
2017-08-17T18:01:39.898Z,20.30
2017-08-17T18:04:07.458Z,20.00
2017-08-17T18:06:35.015Z,20.00
2017-08-17T18:09:02.557Z,20.10
2017-08-17T18:11:30.135Z,20.10
2017-08-17T18:13:57.691Z,20.10
2017-08-17T18:16:25.299Z,20.20
2017-08-17T18:18:52.896Z,20.10
2017-08-17T18:21:20.496Z,19.90
2017-08-17T18:23:48.039Z,19.90
2017-08-17T18:26:15.639Z,20.00
2017-08-17T18:28:43.260Z,20.00
2017-08-17T18:31:10.844Z,20.00
2017-08-17T18:33:38.448Z,20.00
2017-08-17T18:36:06.595Z,19.90
2017-08-17T18:38:34.187Z,20.00
2017-08-17T18:41:09.953Z,20.00
2017-08-17T18:43:37.701Z,19.90
2017-08-17T18:46:05.775Z,19.80
2017-08-17T18:48:35.156Z,19.80
2017-08-17T18:51:04.096Z,19.90
2017-08-17T18:53:31.722Z,19.90
2017-08-17T18:55:59.557Z,19.90
2017-08-17T18:58:28.413Z,19.90
2017-08-17T19:00:57.226Z,19.80
2017-08-17T19:03:26.687Z,19.80
2017-08-17T19:05:54.404Z,19.90
2017-08-17T19:08:21.954Z,19.80
2017-08-17T19:10:49.633Z,19.80
2017-08-17T19:13:17.333Z,19.70
2017-08-17T19:15:47.151Z,19.60
2017-08-17T19:18:14.695Z,19.70
2017-08-17T19:20:42.343Z,19.70
2017-08-17T19:23:09.914Z,19.70
2017-08-17T19:25:39.149Z,19.60
2017-08-17T19:28:06.858Z,19.60
2017-08-17T19:30:36.879Z,19.60
2017-08-17T19:33:04.540Z,19.50
2017-08-17T19:35:33.681Z,19.50
2017-08-17T19:38:01.657Z,19.50
2017-08-17T19:40:29.286Z,19.50
2017-08-17T19:45:45.040Z,19.40
2017-08-17T19:48:29.416Z,19.50
2017-08-17T19:50:58.219Z,19.50
2017-08-17T19:53:26.061Z,19.50
2017-08-17T19:55:53.922Z,19.40
2017-08-17T19:58:37.133Z,19.40
2017-08-17T20:01:08.472Z,19.50
2017-08-17T20:03:40.481Z,19.50
2017-08-17T20:06:08.342Z,19.40
2017-08-17T20:08:42.102Z,19.30
2017-08-17T20:11:15.894Z,19.40
2017-08-17T20:16:25.901Z,19.30
2017-08-17T20:18:54.664Z,19.30
2017-08-17T20:34:48.625Z,19.40
2017-08-17T20:39:55.920Z,19.30
2017-08-17T20:42:23.478Z,19.30
2017-08-17T20:44:51.034Z,19.40
2017-08-17T20:47:18.590Z,19.40
2017-08-17T20:49:46.154Z,19.40
2017-08-17T20:52:13.716Z,19.40
2017-08-17T20:54:41.251Z,19.40
2017-08-17T20:57:08.799Z,19.40
2017-08-17T20:59:36.334Z,19.40
2017-08-17T21:02:03.918Z,19.40
2017-08-17T21:04:31.459Z,19.30
2017-08-17T21:06:58.987Z,19.40
2017-08-17T21:09:26.515Z,19.50
2017-08-17T21:11:54.042Z,19.50
2017-08-17T21:16:56.162Z,19.40
2017-08-17T21:19:23.714Z,19.40
2017-08-17T21:21:51.303Z,19.40
2017-08-17T21:24:18.870Z,19.40
2017-08-17T21:26:46.403Z,19.40
2017-08-17T21:29:13.988Z,19.30
2017-08-17T21:31:41.525Z,19.30
2017-08-17T21:34:09.068Z,19.30
2017-08-17T21:36:36.663Z,19.30
2017-08-17T21:39:04.199Z,19.30
2017-08-17T21:41:31.732Z,19.30
2017-08-17T21:44:00.037Z,19.20
2017-08-17T21:46:27.586Z,19.20
2017-08-17T21:48:55.891Z,19.30
2017-08-17T21:51:23.418Z,19.20
2017-08-17T21:53:51.720Z,19.30
2017-08-17T21:56:19.269Z,19.30
2017-08-17T21:58:46.803Z,19.20
2017-08-17T22:01:14.428Z,19.20
2017-08-17T22:03:41.960Z,19.20
2017-08-17T22:06:09.491Z,19.30
2017-08-17T22:08:37.106Z,19.30
2017-08-17T22:11:04.639Z,19.20
2017-08-17T22:13:32.198Z,19.20
2017-08-17T22:15:59.732Z,19.20
2017-08-17T22:18:27.351Z,19.20
2017-08-17T22:20:54.879Z,19.20
2017-08-17T22:23:22.407Z,19.20
2017-08-17T22:25:49.939Z,19.20
2017-08-17T22:28:17.471Z,19.20
2017-08-17T22:30:45.004Z,19.20
2017-08-17T22:33:12.551Z,19.20
2017-08-17T22:35:40.079Z,19.20
2017-08-17T22:38:07.607Z,19.20
2017-08-17T22:40:35.138Z,19.10
2017-08-17T22:43:03.438Z,19.20
2017-08-17T22:45:30.988Z,19.10
2017-08-17T22:47:59.298Z,19.10
2017-08-17T22:50:26.882Z,19.10
2017-08-17T22:52:54.417Z,19.10
2017-08-17T22:55:22.088Z,19.10
2017-08-17T22:57:49.615Z,19.10
2017-08-17T23:00:17.142Z,19.10
2017-08-17T23:02:44.674Z,19.10
2017-08-17T23:05:12.235Z,19.00
2017-08-17T23:07:39.767Z,19.00
2017-08-17T23:10:07.359Z,19.00
2017-08-17T23:12:34.916Z,19.00
2017-08-17T23:15:02.452Z,18.90
2017-08-17T23:17:30.007Z,18.90
2017-08-17T23:19:57.542Z,18.80
2017-08-17T23:22:25.075Z,18.80
2017-08-17T23:24:52.612Z,18.80
2017-08-17T23:27:20.151Z,18.70
2017-08-17T23:29:47.680Z,18.60
2017-08-17T23:32:15.211Z,18.60
2017-08-17T23:34:42.739Z,18.60
2017-08-17T23:37:10.272Z,18.70
2017-08-17T23:39:38.607Z,18.70
2017-08-17T23:42:06.144Z,18.70
2017-08-17T23:44:33.698Z,18.70
2017-08-17T23:47:01.227Z,18.80
2017-08-17T23:49:28.820Z,18.80
2017-08-17T23:51:56.370Z,18.90
2017-08-17T23:54:23.932Z,18.90
2017-08-17T23:56:51.491Z,18.90
2017-08-17T23:59:19.022Z,18.90
